createdAt,value
2018-06-21T00:00:49.222Z,99.70
2018-06-21T00:03:17.935Z,99.40
2018-06-21T00:05:46.687Z,99.40
2018-06-21T00:08:15.453Z,99.70
2018-06-21T00:10:44.153Z,99.40
2018-06-21T00:13:12.965Z,99.80
2018-06-21T00:15:41.692Z,99.70
2018-06-21T00:18:11.381Z,99.90
2018-06-21T00:20:40.043Z,99.90
2018-06-21T00:23:08.838Z,99.90
2018-06-21T00:25:37.809Z,99.90
2018-06-21T00:28:06.480Z,99.90
2018-06-21T00:30:35.256Z,99.90
2018-06-21T00:33:03.969Z,99.90
2018-06-21T00:35:32.714Z,99.90
2018-06-21T00:38:01.392Z,99.90
2018-06-21T00:40:30.196Z,99.90
2018-06-21T00:42:58.878Z,99.90
2018-06-21T00:45:27.576Z,99.90
2018-06-21T00:47:56.263Z,99.90
2018-06-21T00:50:25.577Z,99.90
2018-06-21T00:52:54.327Z,99.90
2018-06-21T00:55:34.142Z,99.90
2018-06-21T00:58:02.960Z,99.90
2018-06-21T01:03:00.043Z,99.90
2018-06-21T01:05:28.744Z,99.90
2018-06-21T01:07:57.445Z,99.90
2018-06-21T01:10:26.161Z,99.90
2018-06-21T01:12:54.885Z,99.90
2018-06-21T01:15:23.529Z,99.90
2018-06-21T01:17:52.299Z,99.90
2018-06-21T01:20:21.020Z,99.90
2018-06-21T01:22:49.711Z,99.90
2018-06-21T01:25:18.532Z,99.90
2018-06-21T01:27:47.239Z,99.90
2018-06-21T01:30:15.961Z,99.90
2018-06-21T01:32:44.753Z,99.90
2018-06-21T01:35:13.456Z,99.90
2018-06-21T01:37:42.130Z,99.90
2018-06-21T01:40:10.888Z,99.90
2018-06-21T01:42:39.604Z,99.90
2018-06-21T01:45:09.350Z,99.90
2018-06-21T01:47:38.069Z,99.90
2018-06-21T01:50:06.777Z,99.90
2018-06-21T01:52:35.473Z,99.90
2018-06-21T01:55:04.265Z,99.90
2018-06-21T01:57:32.973Z,99.90
2018-06-21T02:00:01.778Z,99.90
2018-06-21T02:02:30.596Z,99.90
2018-06-21T02:04:59.260Z,99.90
2018-06-21T02:07:28.042Z,99.90
2018-06-21T02:09:58.717Z,99.90
2018-06-21T02:12:28.395Z,99.90
2018-06-21T02:14:57.123Z,99.90
2018-06-21T02:17:25.912Z,99.90
2018-06-21T02:19:54.609Z,99.90
2018-06-21T02:22:24.325Z,99.90
2018-06-21T02:24:53.060Z,99.90
2018-06-21T02:27:22.294Z,99.90
2018-06-21T02:29:51.932Z,99.90
2018-06-21T02:32:20.731Z,99.90
2018-06-21T02:34:49.473Z,99.90
2018-06-21T02:37:19.186Z,99.90
2018-06-21T02:39:49.002Z,99.90
2018-06-21T02:42:17.633Z,99.90
2018-06-21T02:44:46.300Z,99.90
2018-06-21T02:47:15.033Z,99.90
2018-06-21T02:49:44.541Z,99.90
2018-06-21T02:52:13.281Z,99.90
2018-06-21T02:54:41.944Z,99.90
2018-06-21T02:57:10.651Z,99.90
2018-06-21T02:59:39.292Z,99.90
2018-06-21T03:02:08.040Z,99.90
2018-06-21T03:04:36.669Z,99.90
2018-06-21T03:07:05.384Z,99.90
2018-06-21T03:09:34.127Z,99.90
2018-06-21T03:12:02.844Z,99.90
2018-06-21T03:14:31.585Z,99.90
2018-06-21T03:17:00.261Z,99.90
2018-06-21T03:19:28.918Z,99.90
2018-06-21T03:22:01.706Z,99.90
2018-06-21T03:24:30.422Z,99.90
2018-06-21T03:26:59.136Z,99.90
2018-06-21T03:29:28.013Z,99.90
2018-06-21T03:31:56.669Z,99.90
2018-06-21T03:34:25.723Z,99.90
2018-06-21T03:36:55.541Z,99.90
2018-06-21T03:39:24.201Z,99.90
2018-06-21T03:41:52.846Z,99.90
2018-06-21T03:46:49.870Z,99.90
2018-06-21T03:49:18.556Z,99.90
2018-06-21T03:51:47.263Z,99.90
2018-06-21T03:54:15.951Z,99.90
2018-06-21T03:56:44.611Z,99.90
2018-06-21T03:59:13.325Z,99.90
2018-06-21T04:01:42.032Z,99.90
2018-06-21T04:04:10.782Z,99.90
2018-06-21T04:06:39.488Z,99.90
2018-06-21T04:09:09.853Z,99.90
2018-06-21T04:11:38.664Z,99.90
2018-06-21T04:14:07.436Z,99.90
2018-06-21T04:16:36.501Z,99.90
2018-06-21T04:19:05.588Z,99.90
2018-06-21T04:21:36.411Z,99.90
2018-06-21T04:24:05.419Z,99.90
2018-06-21T04:26:34.135Z,99.90
2018-06-21T04:29:03.082Z,99.90
2018-06-21T04:31:32.760Z,97.80
2018-06-21T04:34:01.440Z,96.40
2018-06-21T04:36:30.132Z,95.80
2018-06-21T04:38:58.823Z,94.70
2018-06-21T04:41:27.569Z,94.90
2018-06-21T04:43:56.231Z,94.90
2018-06-21T04:46:25.118Z,93.80
2018-06-21T04:48:54.140Z,92.30
2018-06-21T04:51:22.993Z,92.20
2018-06-21T04:53:51.794Z,91.70
2018-06-21T04:56:20.600Z,91.30
2018-06-21T04:58:51.369Z,92.20
2018-06-21T05:01:20.021Z,93.30
2018-06-21T05:03:49.141Z,93.80
2018-06-21T05:06:18.031Z,94.40
2018-06-21T05:08:46.797Z,94.60
2018-06-21T05:11:15.490Z,93.30
2018-06-21T05:13:44.312Z,94.30
2018-06-21T05:16:13.442Z,93.30
2018-06-21T05:18:42.189Z,94.00
2018-06-21T05:21:10.943Z,93.70
2018-06-21T05:23:39.597Z,94.40
2018-06-21T05:26:08.316Z,93.50
2018-06-21T05:28:37.039Z,92.80
2018-06-21T05:31:05.667Z,93.40
2018-06-21T05:33:36.392Z,93.70
2018-06-21T05:36:05.894Z,95.20
2018-06-21T05:38:47.481Z,94.60
2018-06-21T05:41:16.466Z,94.90
2018-06-21T05:43:45.184Z,96.40
2018-06-21T05:46:13.843Z,97.10
2018-06-21T05:48:46.494Z,98.10
2018-06-21T05:51:17.232Z,98.60
2018-06-21T05:53:47.954Z,99.90
2018-06-21T05:56:16.617Z,99.90
2018-06-21T05:58:48.542Z,99.90
2018-06-21T06:01:18.792Z,99.90
2018-06-21T06:03:48.405Z,99.90
2018-06-21T06:06:20.096Z,99.90
2018-06-21T06:08:51.705Z,99.90
2018-06-21T06:11:27.960Z,99.90
2018-06-21T06:14:00.117Z,99.90
2018-06-21T06:16:30.053Z,99.90
2018-06-21T06:19:00.160Z,99.90
2018-06-21T06:21:29.142Z,99.90
2018-06-21T06:24:02.887Z,99.90
2018-06-21T06:26:39.012Z,99.90
2018-06-21T06:29:08.587Z,99.90
2018-06-21T06:34:10.664Z,98.40
2018-06-21T06:36:39.412Z,98.70
2018-06-21T06:39:17.830Z,99.30
2018-06-21T06:41:48.883Z,99.00
2018-06-21T06:44:18.301Z,99.40
2018-06-21T06:46:47.736Z,99.50
2018-06-21T06:49:17.840Z,99.30
2018-06-21T06:51:47.762Z,99.90
2018-06-21T06:54:17.824Z,99.90
2018-06-21T06:56:47.307Z,98.60
2018-06-21T06:59:16.990Z,99.80
2018-06-21T07:01:46.591Z,97.90
2018-06-21T07:04:15.989Z,97.80
2018-06-21T07:06:45.680Z,99.90
2018-06-21T07:09:16.144Z,97.70
2018-06-21T07:11:53.208Z,97.90
2018-06-21T07:14:21.885Z,96.70
2018-06-21T07:16:53.203Z,96.40
2018-06-21T07:19:22.077Z,95.10
2018-06-21T07:21:50.749Z,93.40
2018-06-21T07:24:20.341Z,95.30
2018-06-21T07:26:51.943Z,96.30
2018-06-21T07:29:21.741Z,97.10
2018-06-21T07:34:19.628Z,96.10
2018-06-21T07:36:50.142Z,94.80
2018-06-21T07:39:19.234Z,95.60
2018-06-21T07:41:49.696Z,96.50
2018-06-21T07:44:19.427Z,97.10
2018-06-21T07:46:48.137Z,97.80
2018-06-21T07:49:16.813Z,95.90
2018-06-21T07:51:45.667Z,95.30
2018-06-21T07:54:17.990Z,95.70
2018-06-21T07:56:46.716Z,96.50
2018-06-21T07:59:15.352Z,95.60
2018-06-21T08:01:43.974Z,95.30
2018-06-21T08:04:13.696Z,96.30
2018-06-21T08:06:43.079Z,95.20
2018-06-21T08:09:13.097Z,97.40
2018-06-21T08:14:10.050Z,96.90
2018-06-21T08:16:39.824Z,97.90
2018-06-21T08:19:08.654Z,96.70
2018-06-21T08:21:37.376Z,96.90
2018-06-21T08:24:06.278Z,97.30
2018-06-21T08:26:34.893Z,99.90
2018-06-21T08:29:03.615Z,97.60
2018-06-21T08:31:32.258Z,96.70
2018-06-21T08:34:01.080Z,97.70
2018-06-21T08:36:29.782Z,97.30
2018-06-21T08:38:58.578Z,97.10
2018-06-21T08:41:33.509Z,96.20
2018-06-21T08:44:03.201Z,97.90
2018-06-21T08:46:33.868Z,98.60
2018-06-21T08:49:02.661Z,99.30
2018-06-21T08:51:31.403Z,97.20
2018-06-21T08:54:00.124Z,97.70
2018-06-21T08:56:30.719Z,96.20
2018-06-21T08:58:59.573Z,95.60
2018-06-21T09:01:28.256Z,97.10
2018-06-21T09:03:57.027Z,96.70
2018-06-21T09:06:25.656Z,92.90
2018-06-21T09:08:54.501Z,95.70
2018-06-21T09:11:23.285Z,92.00
2018-06-21T09:13:51.979Z,93.00
2018-06-21T09:16:20.728Z,93.30
2018-06-21T09:18:49.446Z,93.10
2018-06-21T09:21:18.165Z,92.30
2018-06-21T09:23:46.875Z,93.60
2018-06-21T09:26:15.549Z,92.60
2018-06-21T09:28:45.239Z,93.50
2018-06-21T09:31:13.975Z,93.00
2018-06-21T09:33:42.923Z,92.60
2018-06-21T09:36:11.542Z,93.50
2018-06-21T09:38:45.528Z,96.30
2018-06-21T09:41:19.330Z,92.20
2018-06-21T09:44:03.830Z,93.80
2018-06-21T09:46:33.876Z,89.30
2018-06-21T09:48:57.854Z,91.10
2018-06-21T09:53:58.851Z,90.60
2018-06-21T09:56:27.425Z,93.70
2018-06-21T09:58:57.178Z,92.20
2018-06-21T10:01:25.920Z,94.10
2018-06-21T10:03:55.628Z,92.10
2018-06-21T10:06:25.239Z,92.30
2018-06-21T10:08:54.037Z,91.60
2018-06-21T10:11:22.741Z,90.20
2018-06-21T10:13:51.390Z,90.00
2018-06-21T10:16:20.110Z,90.60
2018-06-21T10:18:52.602Z,81.20
2018-06-21T10:21:23.400Z,82.80
2018-06-21T10:23:54.084Z,85.50
2018-06-21T10:26:22.827Z,85.20
2018-06-21T10:28:54.191Z,84.20
2018-06-21T10:31:22.913Z,82.40
2018-06-21T10:33:51.557Z,79.60
2018-06-21T10:36:20.164Z,80.60
2018-06-21T10:38:49.966Z,81.00
2018-06-21T10:41:20.574Z,81.10
2018-06-21T10:43:49.256Z,77.60
2018-06-21T10:46:18.886Z,77.80
2018-06-21T10:48:47.534Z,81.00
2018-06-21T10:51:16.144Z,79.90
2018-06-21T10:53:46.058Z,79.60
2018-06-21T10:56:17.337Z,78.30
2018-06-21T10:58:46.028Z,78.00
2018-06-21T11:01:14.933Z,79.50
2018-06-21T11:03:43.636Z,77.80
2018-06-21T11:06:13.385Z,75.00
2018-06-21T11:08:42.101Z,70.00
2018-06-21T11:11:10.839Z,73.40
2018-06-21T11:13:39.534Z,78.60
2018-06-21T11:18:36.607Z,74.80
2018-06-21T11:21:05.308Z,74.20
2018-06-21T11:23:36.008Z,72.40
2018-06-21T11:26:04.891Z,76.30
2018-06-21T11:28:36.564Z,75.90
2018-06-21T11:31:05.366Z,70.60
2018-06-21T11:33:34.007Z,65.30
2018-06-21T11:36:04.773Z,67.20
2018-06-21T11:38:33.456Z,70.90
2018-06-21T11:41:03.157Z,71.30
2018-06-21T11:43:34.953Z,72.40
2018-06-21T11:46:04.604Z,71.70
2018-06-21T11:48:37.149Z,70.40
2018-06-21T11:51:05.840Z,70.70
2018-06-21T11:53:34.471Z,71.10
2018-06-21T11:56:03.163Z,72.90
2018-06-21T11:58:31.943Z,74.20
2018-06-21T12:01:01.717Z,64.20
2018-06-21T12:03:31.354Z,67.70
2018-06-21T12:06:00.090Z,69.40
2018-06-21T12:08:28.806Z,67.90
2018-06-21T12:11:02.385Z,70.40
2018-06-21T12:13:31.136Z,66.10
2018-06-21T12:15:59.875Z,68.00
2018-06-21T12:18:30.579Z,65.10
2018-06-21T12:20:59.316Z,65.20
2018-06-21T12:23:28.054Z,69.30
2018-06-21T12:25:57.761Z,66.80
2018-06-21T12:30:54.744Z,66.30
2018-06-21T12:33:24.481Z,70.10
2018-06-21T12:35:53.175Z,64.80
2018-06-21T12:38:21.847Z,67.30
2018-06-21T12:40:50.669Z,65.40
2018-06-21T12:43:19.344Z,65.60
2018-06-21T12:45:50.123Z,64.30
2018-06-21T12:48:20.982Z,65.00
2018-06-21T12:50:49.638Z,62.40
2018-06-21T12:53:18.263Z,63.90
2018-06-21T12:55:46.932Z,64.00
2018-06-21T12:58:17.525Z,67.40
2018-06-21T13:00:47.189Z,61.80
2018-06-21T13:03:15.863Z,62.50
2018-06-21T13:05:44.532Z,61.90
2018-06-21T13:08:24.567Z,61.90
2018-06-21T13:11:04.092Z,62.90
2018-06-21T13:13:32.729Z,61.10
2018-06-21T13:16:01.379Z,62.60
2018-06-21T13:18:31.080Z,64.20
2018-06-21T13:20:59.796Z,58.10
2018-06-21T13:23:28.399Z,60.70
2018-06-21T13:25:57.135Z,63.20
2018-06-21T13:28:25.845Z,60.40
2018-06-21T13:30:55.588Z,63.20
2018-06-21T13:33:24.236Z,62.40
2018-06-21T13:35:52.878Z,62.50
2018-06-21T13:38:21.536Z,62.80
2018-06-21T13:40:51.184Z,62.10
2018-06-21T13:43:20.856Z,62.40
2018-06-21T13:45:49.552Z,64.60
2018-06-21T13:48:18.179Z,64.40
2018-06-21T13:50:46.814Z,62.30
2018-06-21T13:53:15.440Z,63.20
2018-06-21T13:55:44.099Z,64.90
2018-06-21T13:58:13.816Z,66.20
2018-06-21T14:00:42.449Z,63.70
2018-06-21T14:03:11.157Z,64.00
2018-06-21T14:08:08.267Z,62.20
2018-06-21T14:10:37.583Z,61.60
2018-06-21T14:13:06.234Z,63.50
2018-06-21T14:15:34.873Z,61.60
2018-06-21T14:20:31.966Z,60.80
2018-06-21T14:23:00.557Z,58.80
2018-06-21T14:25:29.431Z,63.20
2018-06-21T14:27:58.152Z,60.50
2018-06-21T14:30:26.846Z,61.30
2018-06-21T14:32:55.518Z,59.70
2018-06-21T14:35:25.272Z,61.60
2018-06-21T14:37:54.925Z,60.60
2018-06-21T14:40:25.841Z,59.70
2018-06-21T14:42:56.869Z,60.60
2018-06-21T14:45:26.453Z,57.80
2018-06-21T14:47:55.109Z,57.20
2018-06-21T14:50:24.848Z,58.40
2018-06-21T14:52:53.522Z,61.00
2018-06-21T14:55:22.196Z,60.30
2018-06-21T14:57:51.645Z,60.00
2018-06-21T15:00:20.330Z,61.50
2018-06-21T15:02:50.101Z,60.50
2018-06-21T15:05:18.902Z,61.70
2018-06-21T15:07:47.589Z,61.70
2018-06-21T15:10:17.200Z,62.40
2018-06-21T15:12:45.894Z,62.70
2018-06-21T15:15:14.552Z,61.70
2018-06-21T15:17:43.549Z,61.70
2018-06-21T15:20:13.223Z,58.70
2018-06-21T15:22:42.895Z,59.40
2018-06-21T15:25:11.623Z,56.10
2018-06-21T15:27:40.461Z,60.20
2018-06-21T15:30:10.175Z,61.70
2018-06-21T15:32:38.883Z,63.00
2018-06-21T15:35:07.542Z,65.60
2018-06-21T15:37:36.255Z,64.90
2018-06-21T15:40:04.971Z,64.80
2018-06-21T15:42:33.723Z,65.80
2018-06-21T15:45:02.421Z,65.50
2018-06-21T15:47:31.204Z,65.70
2018-06-21T15:49:59.869Z,67.40
2018-06-21T15:52:28.655Z,66.70
2018-06-21T15:57:25.900Z,67.70
2018-06-21T15:59:54.514Z,66.10
2018-06-21T16:02:23.232Z,69.60
2018-06-21T16:07:20.274Z,68.30
2018-06-21T16:09:49.042Z,71.60
2018-06-21T16:12:17.703Z,71.10
2018-06-21T16:14:46.423Z,70.50
2018-06-21T16:17:15.083Z,69.40
2018-06-21T16:19:43.844Z,68.30
2018-06-21T16:22:12.550Z,69.80
2018-06-21T16:24:41.224Z,68.60
2018-06-21T16:27:09.974Z,68.80
2018-06-21T16:29:39.717Z,70.00
2018-06-21T16:32:08.406Z,70.70
2018-06-21T16:34:37.068Z,71.10
2018-06-21T16:37:05.883Z,69.30
2018-06-21T16:39:35.648Z,68.80
2018-06-21T16:42:04.413Z,68.30
2018-06-21T16:47:04.096Z,68.50
2018-06-21T16:49:33.784Z,70.10
2018-06-21T16:52:02.444Z,69.70
2018-06-21T16:54:31.165Z,70.10
2018-06-21T16:57:00.859Z,69.70
2018-06-21T16:59:32.694Z,69.00
2018-06-21T17:02:01.379Z,67.70
2018-06-21T17:04:30.179Z,70.20
2018-06-21T17:06:59.834Z,69.20
2018-06-21T17:09:30.678Z,69.60
2018-06-21T17:11:59.451Z,71.50
2018-06-21T17:14:28.134Z,71.80
2018-06-21T17:16:58.549Z,70.50
2018-06-21T17:19:27.277Z,71.10
2018-06-21T17:21:55.932Z,71.30
2018-06-21T17:24:26.030Z,70.80
2018-06-21T17:26:55.315Z,69.70
2018-06-21T17:29:26.134Z,69.40
2018-06-21T17:31:54.840Z,69.50
2018-06-21T17:34:23.580Z,70.90
2018-06-21T17:36:52.364Z,68.00
2018-06-21T17:39:21.142Z,68.20
2018-06-21T17:41:50.743Z,69.30
2018-06-21T17:44:20.550Z,69.80
2018-06-21T17:46:50.288Z,69.00
2018-06-21T17:49:20.418Z,70.20
2018-06-21T17:51:49.388Z,70.90
2018-06-21T17:54:18.154Z,69.80
2018-06-21T17:56:47.943Z,70.00
2018-06-21T17:59:19.683Z,70.90
2018-06-21T18:01:48.369Z,71.60
2018-06-21T18:04:17.023Z,72.30
2018-06-21T18:06:45.778Z,72.20
2018-06-21T18:09:16.432Z,72.70
2018-06-21T18:11:45.198Z,71.80
2018-06-21T18:14:13.885Z,71.70
2018-06-21T18:16:42.679Z,72.80
2018-06-21T18:19:12.142Z,73.90
2018-06-21T18:21:41.631Z,75.00
2018-06-21T18:24:10.345Z,76.50
2018-06-21T18:26:39.269Z,77.30
2018-06-21T18:29:08.141Z,77.50
2018-06-21T18:31:37.074Z,78.90
2018-06-21T18:34:06.787Z,79.70
2018-06-21T18:36:35.728Z,80.60
2018-06-21T18:39:06.060Z,81.30
2018-06-21T18:41:35.793Z,81.90
2018-06-21T18:44:05.536Z,81.90
2018-06-21T18:46:34.923Z,82.90
2018-06-21T18:49:04.943Z,83.50
2018-06-21T18:51:33.775Z,84.90
2018-06-21T18:54:03.054Z,85.30
2018-06-21T18:56:31.909Z,85.70
2018-06-21T18:59:00.812Z,87.30
2018-06-21T19:01:31.901Z,87.80
2018-06-21T19:04:00.677Z,88.10
2018-06-21T19:06:34.728Z,86.90
2018-06-21T19:09:09.127Z,86.10
2018-06-21T19:11:47.234Z,85.60
2018-06-21T19:16:46.760Z,87.50
2018-06-21T19:19:15.687Z,90.60
2018-06-21T19:21:45.900Z,93.20
2018-06-21T19:24:14.916Z,93.40
2018-06-21T19:26:43.625Z,95.00
2018-06-21T19:29:12.675Z,94.00
2018-06-21T19:31:41.471Z,94.40
2018-06-21T19:34:11.158Z,94.30
2018-06-21T19:36:40.998Z,94.70
2018-06-21T19:39:12.219Z,94.60
2018-06-21T19:41:44.774Z,95.00
2018-06-21T19:44:13.949Z,94.00
2018-06-21T19:46:43.707Z,94.40
2018-06-21T19:49:12.363Z,93.10
2018-06-21T19:51:41.118Z,92.90
2018-06-21T19:54:13.690Z,92.20
2018-06-21T19:56:43.291Z,91.80
2018-06-21T19:59:18.590Z,91.80
2018-06-21T20:01:48.109Z,91.80
2018-06-21T20:04:18.930Z,91.60
2018-06-21T20:06:49.027Z,91.40
2018-06-21T20:09:18.103Z,91.80
2018-06-21T20:11:46.838Z,91.80
2018-06-21T20:14:15.653Z,91.80
2018-06-21T20:16:47.450Z,91.60
2018-06-21T20:19:18.740Z,92.10
2018-06-21T20:21:49.946Z,91.70
2018-06-21T20:24:18.888Z,91.70
2018-06-21T20:26:49.712Z,92.60
2018-06-21T20:29:19.989Z,91.40
2018-06-21T20:31:49.755Z,91.80
2018-06-21T20:34:19.647Z,92.10
2018-06-21T20:36:52.711Z,91.90
2018-06-21T20:39:21.770Z,91.70
2018-06-21T20:41:50.398Z,91.70
2018-06-21T20:44:20.141Z,91.60
2018-06-21T20:46:48.843Z,91.60
2018-06-21T20:49:17.694Z,91.60
2018-06-21T20:51:48.397Z,91.90
2018-06-21T20:54:18.147Z,92.60
2018-06-21T20:56:46.890Z,92.30
2018-06-21T20:59:15.530Z,91.60
2018-06-21T21:01:44.188Z,91.60
2018-06-21T21:04:13.947Z,91.60
2018-06-21T21:06:48.451Z,91.50
2018-06-21T21:09:17.098Z,91.50
2018-06-21T21:11:45.818Z,91.50
2018-06-21T21:14:16.571Z,91.00
2018-06-21T21:16:45.276Z,90.90
2018-06-21T21:19:14.977Z,91.30
2018-06-21T21:21:43.732Z,90.80
2018-06-21T21:24:14.625Z,91.40
2018-06-21T21:26:43.310Z,91.40
2018-06-21T21:29:12.003Z,90.50
2018-06-21T21:31:41.441Z,90.50
2018-06-21T21:34:10.002Z,90.00
2018-06-21T21:36:38.755Z,90.10
2018-06-21T21:39:08.912Z,90.20
2018-06-21T21:41:37.543Z,89.20
2018-06-21T21:44:06.526Z,89.30
2018-06-21T21:46:36.070Z,89.00
2018-06-21T21:49:04.829Z,88.80
2018-06-21T21:51:33.527Z,90.10
2018-06-21T21:54:02.230Z,90.80
2018-06-21T21:56:32.857Z,91.20
2018-06-21T21:59:01.569Z,92.10
2018-06-21T22:01:30.306Z,93.20
2018-06-21T22:03:59.929Z,94.20
2018-06-21T22:06:28.863Z,93.70
2018-06-21T22:08:57.599Z,93.90
2018-06-21T22:11:27.291Z,91.80
2018-06-21T22:14:01.266Z,90.10
2018-06-21T22:16:30.965Z,85.60
2018-06-21T22:19:03.631Z,84.60
2018-06-21T22:21:32.464Z,81.90
2018-06-21T22:24:01.113Z,78.60
2018-06-21T22:26:29.782Z,79.20
2018-06-21T22:28:59.574Z,80.00
2018-06-21T22:31:29.348Z,78.40
2018-06-21T22:33:58.050Z,78.40
2018-06-21T22:36:26.671Z,77.50
2018-06-21T22:38:55.283Z,76.40
2018-06-21T22:41:25.961Z,79.80
2018-06-21T22:43:55.667Z,72.80
2018-06-21T22:46:24.317Z,76.10
2018-06-21T22:48:54.022Z,79.50
2018-06-21T22:51:22.630Z,82.10
2018-06-21T22:53:51.350Z,84.60
2018-06-21T22:56:20.015Z,82.00
2018-06-21T23:01:16.987Z,79.60
2018-06-21T23:03:46.718Z,80.60
2018-06-21T23:06:15.419Z,80.50
2018-06-21T23:08:44.160Z,83.40
2018-06-21T23:11:12.907Z,82.50
2018-06-21T23:13:43.850Z,78.50
2018-06-21T23:16:16.259Z,80.70
2018-06-21T23:18:56.143Z,76.40
2018-06-21T23:21:25.891Z,79.70
2018-06-21T23:23:55.532Z,80.20
2018-06-21T23:26:24.250Z,75.90
2018-06-21T23:28:52.990Z,75.70
2018-06-21T23:31:21.556Z,73.00
2018-06-21T23:33:52.203Z,75.70
2018-06-21T23:36:21.913Z,75.80
2018-06-21T23:38:54.212Z,73.50
2018-06-21T23:43:15.836Z,73.40
2018-06-21T23:45:45.599Z,72.60
2018-06-21T23:48:16.229Z,72.60
2018-06-21T23:50:45.108Z,74.50
2018-06-21T23:53:13.728Z,72.60
2018-06-21T23:55:42.871Z,73.90
